createdAt,value
2018-09-08T02:01:37.730Z,97.13
2018-09-08T02:02:38.134Z,97.61
2018-09-08T02:03:38.781Z,97.03
2018-09-08T02:04:39.217Z,96.94
2018-09-08T02:05:38.699Z,97.32
2018-09-08T02:06:38.874Z,97.51
2018-09-08T02:07:38.790Z,97.13
2018-09-08T02:08:38.755Z,97.61
2018-09-08T02:09:40.765Z,97.37
2018-09-08T02:10:39.815Z,97.03
2018-09-08T02:11:39.718Z,97.22
2018-09-08T02:12:40.026Z,97.61
2018-09-08T02:13:41.410Z,97.32
2018-09-08T02:14:40.149Z,97.70
2018-09-08T02:15:41.314Z,98.46
2018-09-08T02:16:39.749Z,98.65
2018-09-08T02:17:40.403Z,98.08
2018-09-08T02:18:40.314Z,98.08
2018-09-08T02:19:41.856Z,98.18
2018-09-08T02:20:41.214Z,98.85
2018-09-08T02:21:41.822Z,99.22
2018-09-08T02:22:40.527Z,99.22
2018-09-08T02:23:42.900Z,99.41
2018-09-08T02:24:41.055Z,99.04
2018-09-08T02:25:42.413Z,99.32
2018-09-08T02:26:42.735Z,98.46
2018-09-08T02:27:41.728Z,99.37
2018-09-08T02:28:42.509Z,98.65
2018-09-08T02:29:43.139Z,99.22
2018-09-08T02:30:42.764Z,99.13
2018-09-08T02:31:44.311Z,98.75
2018-09-08T02:32:42.096Z,98.56
2018-09-08T02:33:44.684Z,98.08
2018-09-08T02:34:45.420Z,98.56
2018-09-08T02:35:43.849Z,98.36
2018-09-08T02:36:43.320Z,98.36
2018-09-08T02:37:42.881Z,98.32
2018-09-08T02:38:43.378Z,98.65
2018-09-08T02:39:44.894Z,98.85
2018-09-08T02:40:46.162Z,98.60
2018-09-08T02:41:44.949Z,98.46
2018-09-08T02:42:44.511Z,98.32
2018-09-08T02:43:43.843Z,98.65
2018-09-08T02:44:44.279Z,99.13
2018-09-08T02:45:45.735Z,98.75
2018-09-08T02:46:47.749Z,99.04
2018-09-08T02:47:44.652Z,99.13
2018-09-08T02:48:46.081Z,98.65
2018-09-08T02:49:45.487Z,98.65
2018-09-08T02:50:45.938Z,98.08
2018-09-08T02:51:46.044Z,97.70
2018-09-08T02:52:44.868Z,97.70
2018-09-08T02:53:43.544Z,97.94
2018-09-08T02:54:46.415Z,98.46
2018-09-08T02:55:44.884Z,98.56
2018-09-08T02:56:48.325Z,97.84
2018-09-08T02:57:45.892Z,98.13
2018-09-08T02:58:46.603Z,97.94
2018-09-08T02:59:45.220Z,97.94
2018-09-08T03:00:46.523Z,98.22
2018-09-08T03:01:46.889Z,97.65
2018-09-08T03:02:47.235Z,98.32
2018-09-08T03:03:45.483Z,98.03
2018-09-08T03:04:46.781Z,98.32
2018-09-08T03:05:47.783Z,97.65
2018-09-08T03:06:48.010Z,97.99
2018-09-08T03:07:47.686Z,97.94
2018-09-08T03:08:47.477Z,97.84
2018-09-08T03:09:48.146Z,98.18
2018-09-08T03:10:47.812Z,98.46
2018-09-08T03:11:47.550Z,98.13
2018-09-08T03:12:47.257Z,98.79
2018-09-08T03:13:47.321Z,98.89
2018-09-08T03:14:48.546Z,99.08
2018-09-08T03:15:49.362Z,99.37
2018-09-08T03:16:50.104Z,99.37
2018-09-08T03:17:49.379Z,99.41
2018-09-08T03:18:49.034Z,98.85
2018-09-08T03:19:49.468Z,99.32
2018-09-08T03:20:49.111Z,98.56
2018-09-08T03:21:49.100Z,98.60
2018-09-08T03:22:48.794Z,98.56
2018-09-08T03:23:48.568Z,98.27
2018-09-08T03:24:50.301Z,97.75
2018-09-08T03:25:53.644Z,97.46
2018-09-08T03:26:53.864Z,97.65
2018-09-08T03:27:51.769Z,97.94
2018-09-08T03:28:50.512Z,97.75
2018-09-08T03:29:53.854Z,97.65
2018-09-08T03:30:53.256Z,97.75
2018-09-08T03:31:53.287Z,97.84
2018-09-08T03:32:51.800Z,97.65
2018-09-08T03:33:54.174Z,97.46
2018-09-08T03:34:52.048Z,97.94
2018-09-08T03:35:51.006Z,97.65
2018-09-08T03:36:55.540Z,97.46
2018-09-08T03:37:52.849Z,97.56
2018-09-08T03:38:51.635Z,97.94
2018-09-08T03:39:52.165Z,97.75
2018-09-08T03:40:52.368Z,97.46
2018-09-08T03:41:53.710Z,97.46
2018-09-08T03:42:52.393Z,98.22
2018-09-08T03:43:52.137Z,97.84
2018-09-08T03:44:53.577Z,97.46
2018-09-08T03:45:52.265Z,97.75
2018-09-08T03:46:53.537Z,97.36
2018-09-08T03:47:56.290Z,97.46
2018-09-08T03:48:55.723Z,97.27
2018-09-08T03:49:58.220Z,97.46
2018-09-08T03:50:54.877Z,97.75
2018-09-08T03:51:55.406Z,98.32
2018-09-08T03:52:54.415Z,98.32
2018-09-08T03:53:54.160Z,98.03
2018-09-08T03:54:55.693Z,98.41
2018-09-08T03:55:54.867Z,98.22
2018-09-08T03:56:55.076Z,98.22
2018-09-08T03:57:55.715Z,98.41
2018-09-08T03:58:56.267Z,98.70
2018-09-08T03:59:55.941Z,98.60
2018-09-08T04:00:54.580Z,98.60
2018-09-08T04:01:55.733Z,98.51
2018-09-08T04:02:55.474Z,98.51
2018-09-08T04:03:57.713Z,98.03
2018-09-08T04:04:56.975Z,98.41
2018-09-08T04:05:55.887Z,98.79
2018-09-08T04:06:55.986Z,98.32
2018-09-08T04:07:56.285Z,98.41
2018-09-08T04:08:56.460Z,97.65
2018-09-08T04:09:57.129Z,97.75
2018-09-08T04:10:58.546Z,97.56
2018-09-08T04:11:57.398Z,96.89
2018-09-08T04:12:56.922Z,96.70
2018-09-08T04:13:59.399Z,96.98
2018-09-08T04:14:57.813Z,97.75
2018-09-08T04:15:56.811Z,97.08
2018-09-08T04:16:57.161Z,97.36
2018-09-08T04:17:57.309Z,97.46
2018-09-08T04:18:57.670Z,97.46
2018-09-08T04:19:58.299Z,97.94
2018-09-08T04:20:57.701Z,97.75
2018-09-08T04:21:57.624Z,97.84
2018-09-08T04:22:57.808Z,98.22
2018-09-08T04:23:57.995Z,98.22
2018-09-08T04:24:58.164Z,98.22
2018-09-08T04:25:58.347Z,97.46
2018-09-08T04:26:58.534Z,97.65
2018-09-08T04:27:58.709Z,97.17
2018-09-08T04:28:58.884Z,97.36
2018-09-08T04:29:59.059Z,97.70
2018-09-08T04:30:59.235Z,98.41
2018-09-08T04:31:59.413Z,98.22
2018-09-08T04:32:59.582Z,97.84
2018-09-08T04:33:59.757Z,98.65
2018-09-08T04:34:59.925Z,98.08
2018-09-08T04:36:00.098Z,98.36
2018-09-08T04:37:00.262Z,99.03
2018-09-08T04:38:00.430Z,98.84
2018-09-08T04:39:00.605Z,98.79
2018-09-08T04:40:00.777Z,98.27
2018-09-08T04:41:00.972Z,98.32
2018-09-08T04:42:01.114Z,98.55
2018-09-08T04:43:01.290Z,98.94
2018-09-08T04:44:01.465Z,98.79
2018-09-08T04:45:01.657Z,99.03
2018-09-08T04:46:01.815Z,98.46
2018-09-08T04:47:01.988Z,98.65
2018-09-08T04:48:02.168Z,99.32
2018-09-08T04:49:02.358Z,98.94
2018-09-08T04:50:02.518Z,99.03
2018-09-08T04:51:02.699Z,98.94
2018-09-08T04:52:02.886Z,99.32
2018-09-08T04:53:03.065Z,99.51
2018-09-08T04:54:03.239Z,99.51
2018-09-08T04:55:03.412Z,99.60
2018-09-08T04:56:03.579Z,99.75
2018-09-08T04:57:03.775Z,99.69
2018-09-08T04:58:05.997Z,99.89
2018-09-08T04:59:04.123Z,99.69
2018-09-08T05:00:04.294Z,99.18
2018-09-08T05:01:04.465Z,99.03
2018-09-08T05:02:04.638Z,98.79
2018-09-08T05:03:04.815Z,99.08
2018-09-08T05:04:04.993Z,99.08
2018-09-08T05:05:05.156Z,98.46
2018-09-08T05:06:05.335Z,98.99
2018-09-08T05:07:05.501Z,98.60
2018-09-08T05:08:05.688Z,98.36
2018-09-08T05:09:05.879Z,98.27
2018-09-08T05:10:06.038Z,98.60
2018-09-08T05:11:06.221Z,98.36
2018-09-08T05:12:06.413Z,98.46
2018-09-08T05:13:06.590Z,98.51
2018-09-08T05:14:06.800Z,98.55
2018-09-08T05:15:06.984Z,98.70
2018-09-08T05:16:07.387Z,98.41
2018-09-08T05:17:07.314Z,98.03
2018-09-08T05:18:07.462Z,97.94
2018-09-08T05:19:07.637Z,97.46
2018-09-08T05:20:07.812Z,97.84
2018-09-08T05:21:07.981Z,97.65
2018-09-08T05:22:08.157Z,97.46
2018-09-08T05:23:08.330Z,97.75
2018-09-08T05:24:08.503Z,98.41
2018-09-08T05:25:08.670Z,98.22
2018-09-08T05:26:08.843Z,98.18
2018-09-08T05:27:09.026Z,97.99
2018-09-08T05:28:09.191Z,97.79
2018-09-08T05:29:09.371Z,98.36
2018-09-08T05:30:09.534Z,97.65
2018-09-08T05:31:09.715Z,97.94
2018-09-08T05:32:09.897Z,98.13
2018-09-08T05:33:10.071Z,97.99
2018-09-08T05:34:10.243Z,98.51
2018-09-08T05:35:10.415Z,97.65
2018-09-08T05:36:10.583Z,97.46
2018-09-08T05:37:10.756Z,97.94
2018-09-08T05:38:10.923Z,98.51
2018-09-08T05:39:11.099Z,97.84
2018-09-08T05:40:11.274Z,98.51
2018-09-08T05:41:11.452Z,98.22
2018-09-08T05:42:11.627Z,98.51
2018-09-08T05:43:11.820Z,98.46
2018-09-08T05:44:11.995Z,98.46
2018-09-08T05:45:12.172Z,99.08
2018-09-08T05:46:12.352Z,98.99
2018-09-08T05:47:12.531Z,99.27
2018-09-08T05:48:12.708Z,99.08
2018-09-08T05:49:12.881Z,98.22
2018-09-08T05:50:13.051Z,98.51
2018-09-08T05:51:13.225Z,98.22
2018-09-08T05:52:13.392Z,99.18
2018-09-08T05:53:13.570Z,98.79
2018-09-08T05:54:13.742Z,98.79
2018-09-08T05:55:13.912Z,99.27
2018-09-08T05:56:14.093Z,98.79
2018-09-08T05:57:14.268Z,99.08
2018-09-08T05:58:14.458Z,98.03
2018-09-08T05:59:14.613Z,97.17
2018-09-08T06:00:14.796Z,97.46
2018-09-08T06:01:14.967Z,96.98
2018-09-08T06:02:15.139Z,97.46
2018-09-08T06:03:15.309Z,97.46
2018-09-08T06:04:15.489Z,97.27
2018-09-08T06:05:15.652Z,97.27
2018-09-08T06:06:15.867Z,97.75
2018-09-08T06:07:16.017Z,97.65
2018-09-08T06:08:16.184Z,97.65
2018-09-08T06:09:16.361Z,97.36
2018-09-08T06:10:16.585Z,96.89
2018-09-08T06:11:16.706Z,96.32
2018-09-08T06:12:16.875Z,96.89
2018-09-08T06:13:17.046Z,96.32
2018-09-08T06:14:17.226Z,96.03
2018-09-08T06:15:17.398Z,96.32
2018-09-08T06:16:17.569Z,95.84
2018-09-08T06:17:17.782Z,95.84
2018-09-08T06:18:17.981Z,95.75
2018-09-08T06:19:18.081Z,96.12
2018-09-08T06:20:18.254Z,96.12
2018-09-08T06:21:18.445Z,96.60
2018-09-08T06:22:18.612Z,96.41
2018-09-08T06:23:18.800Z,96.89
2018-09-08T06:24:18.972Z,96.80
2018-09-08T06:25:19.157Z,96.60
2018-09-08T06:26:19.327Z,96.32
2018-09-08T06:27:19.507Z,96.51
2018-09-08T06:28:19.684Z,96.60
2018-09-08T06:29:19.845Z,95.94
2018-09-08T06:30:20.028Z,95.75
2018-09-08T06:31:20.197Z,95.84
2018-09-08T06:32:20.434Z,95.27
2018-09-08T06:33:20.560Z,95.03
2018-09-08T06:34:20.739Z,95.41
2018-09-08T06:35:21.041Z,95.41
2018-09-08T06:36:21.086Z,95.12
2018-09-08T06:37:21.272Z,95.12
2018-09-08T06:38:21.463Z,95.41
2018-09-08T06:39:21.638Z,95.12
2018-09-08T06:40:21.802Z,95.12
2018-09-08T06:41:21.979Z,94.46
2018-09-08T06:42:22.152Z,93.70
2018-09-08T06:43:22.327Z,93.98
2018-09-08T06:44:22.504Z,93.32
2018-09-08T06:45:22.678Z,92.46
2018-09-08T06:46:22.843Z,93.03
2018-09-08T06:47:23.018Z,92.79
2018-09-08T06:48:23.199Z,92.50
2018-09-08T06:49:23.384Z,92.98
2018-09-08T06:50:23.553Z,92.41
2018-09-08T06:51:23.727Z,92.41
2018-09-08T06:52:23.901Z,92.93
2018-09-08T06:53:24.083Z,92.69
2018-09-08T06:54:24.257Z,92.69
2018-09-08T06:55:24.429Z,92.79
2018-09-08T06:56:24.597Z,92.69
2018-09-08T06:57:24.770Z,92.50
2018-09-08T06:58:24.945Z,92.60
2018-09-08T06:59:25.113Z,92.03
2018-09-08T07:00:25.288Z,91.83
2018-09-08T07:01:25.457Z,91.93
2018-09-08T07:02:25.628Z,90.98
2018-09-08T07:03:25.799Z,91.50
2018-09-08T07:04:26.054Z,91.46
2018-09-08T07:05:26.343Z,91.17
2018-09-08T07:06:26.337Z,91.21
2018-09-08T07:07:26.508Z,89.54
2018-09-08T07:08:26.765Z,88.40
2018-09-08T07:09:26.812Z,87.87
2018-09-08T07:10:26.994Z,87.10
2018-09-08T07:11:27.169Z,86.34
2018-09-08T07:12:27.358Z,84.95
2018-09-08T07:13:27.927Z,84.19
2018-09-08T07:14:27.704Z,84.32
2018-09-08T07:15:27.876Z,83.65
2018-09-08T07:16:28.051Z,83.08
2018-09-08T07:17:28.369Z,82.89
2018-09-08T07:18:28.439Z,82.79
2018-09-08T07:19:28.946Z,82.03
2018-09-08T07:20:29.068Z,82.51
2018-09-08T07:21:28.877Z,82.03
2018-09-08T07:22:29.068Z,82.12
2018-09-08T07:23:29.432Z,82.70
2018-09-08T07:24:29.459Z,82.41
2018-09-08T07:25:29.918Z,82.89
2018-09-08T07:26:30.611Z,83.08
2018-09-08T07:27:30.024Z,83.65
2018-09-08T07:28:30.215Z,83.65
2018-09-08T07:29:30.413Z,83.08
2018-09-08T07:30:30.583Z,83.03
2018-09-08T07:31:30.763Z,82.07
2018-09-08T07:32:30.936Z,81.78
2018-09-08T07:33:32.531Z,81.88
2018-09-08T07:34:31.289Z,81.30
2018-09-08T07:35:31.455Z,80.06
2018-09-08T07:36:31.694Z,79.52
2018-09-08T07:37:32.234Z,79.66
2018-09-08T07:38:32.118Z,78.70
2018-09-08T07:39:32.243Z,77.40
2018-09-08T07:40:32.288Z,75.43
2018-09-08T07:41:32.683Z,74.66
2018-09-08T07:42:33.560Z,74.31
2018-09-08T07:43:33.122Z,73.20
2018-09-08T07:44:33.151Z,72.53
2018-09-08T07:45:33.271Z,72.81
2018-09-08T07:46:33.642Z,71.80
2018-09-08T07:47:33.519Z,71.45
2018-09-08T07:48:33.559Z,70.43
2018-09-08T07:49:33.688Z,69.89
2018-09-08T07:50:33.873Z,69.02
2018-09-08T07:51:34.088Z,67.29
2018-09-08T07:52:34.277Z,66.94
2018-09-08T07:53:34.937Z,66.55
2018-09-08T07:54:35.051Z,66.84
2018-09-08T07:55:34.787Z,65.88
2018-09-08T07:56:35.819Z,65.91
2018-09-08T07:57:35.125Z,64.76
2018-09-08T07:58:35.298Z,65.33
2018-09-08T07:59:35.488Z,65.85
2018-09-08T08:00:35.676Z,65.66
2018-09-08T08:01:35.849Z,64.89
2018-09-08T08:02:36.354Z,64.82
2018-09-08T08:03:36.711Z,63.28
2018-09-08T08:04:36.346Z,62.99
2018-09-08T08:05:36.753Z,63.41
2018-09-08T08:06:36.950Z,62.60
2018-09-08T08:07:36.809Z,62.63
2018-09-08T08:08:36.974Z,62.25
2018-09-08T08:09:37.207Z,61.29
2018-09-08T08:10:37.281Z,61.51
2018-09-08T08:11:38.033Z,60.83
2018-09-08T08:12:37.768Z,60.64
2018-09-08T08:13:37.837Z,59.90
2018-09-08T08:14:38.071Z,60.38
2018-09-08T08:15:38.251Z,60.03
2018-09-08T08:16:38.421Z,59.80
2018-09-08T08:17:38.631Z,60.41
2018-09-08T08:18:38.810Z,59.55
2018-09-08T08:19:38.987Z,59.19
2018-09-08T08:20:39.169Z,58.64
2018-09-08T08:21:39.342Z,57.67
2018-09-08T08:22:39.524Z,57.29
2018-09-08T08:23:40.588Z,57.89
2018-09-08T08:24:41.516Z,57.31
2018-09-08T08:25:40.056Z,56.57
2018-09-08T08:26:40.241Z,56.67
2018-09-08T08:27:40.416Z,56.67
2018-09-08T08:28:40.587Z,55.73
2018-09-08T08:29:40.762Z,55.51
2018-09-08T08:30:40.942Z,55.63
2018-09-08T08:31:41.121Z,55.24
2018-09-08T08:32:41.327Z,54.85
2018-09-08T08:33:41.548Z,54.95
2018-09-08T08:34:41.801Z,54.37
2018-09-08T08:35:41.858Z,53.89
2018-09-08T08:36:42.037Z,53.81
2018-09-08T08:37:42.223Z,53.41
2018-09-08T08:38:42.441Z,53.59
2018-09-08T08:39:42.593Z,53.11
2018-09-08T08:40:42.779Z,53.57
2018-09-08T08:41:42.956Z,53.11
2018-09-08T08:42:43.143Z,53.31
2018-09-08T08:43:43.347Z,52.92
2018-09-08T08:44:43.543Z,53.50
2018-09-08T08:45:43.760Z,54.37
2018-09-08T08:46:43.912Z,54.27
2018-09-08T08:47:44.112Z,53.31
2018-09-08T08:48:44.460Z,52.14
2018-09-08T08:49:44.463Z,52.09
2018-09-08T08:50:44.622Z,53.16
2018-09-08T08:51:44.813Z,54.32
2018-09-08T08:52:46.663Z,55.83
2018-09-08T08:53:45.817Z,54.84
2018-09-08T08:54:48.666Z,56.00
2018-09-08T08:55:45.519Z,56.48
2018-09-08T08:56:45.807Z,56.10
2018-09-08T08:57:45.870Z,56.39
2018-09-08T08:58:46.095Z,56.58
2018-09-08T08:59:46.227Z,55.74
2018-09-08T09:00:46.308Z,55.65
2018-09-08T09:01:46.746Z,56.03
2018-09-08T09:02:46.797Z,56.25
2018-09-08T09:03:46.809Z,55.87
2018-09-08T09:04:47.875Z,54.41
2018-09-08T09:05:47.165Z,53.09
2018-09-08T09:06:47.390Z,51.35
2018-09-08T09:07:47.557Z,51.54
2018-09-08T09:08:48.103Z,50.79
2018-09-08T09:09:47.936Z,51.47
2018-09-08T09:10:48.159Z,51.88
2018-09-08T09:11:48.421Z,50.45
2018-09-08T09:12:48.753Z,48.13
2018-09-08T09:13:48.665Z,47.40
2018-09-08T09:14:48.882Z,46.07
2018-09-08T09:15:49.147Z,44.44
2018-09-08T09:16:49.409Z,43.88
2018-09-08T09:17:49.415Z,44.07
2018-09-08T09:18:49.940Z,42.89
2018-09-08T09:19:49.797Z,42.52
2018-09-08T09:20:50.136Z,40.29
2018-09-08T09:21:50.115Z,40.48
2018-09-08T09:22:50.288Z,40.97
2018-09-08T09:23:50.467Z,41.45
2018-09-08T09:24:51.249Z,40.97
2018-09-08T09:25:50.861Z,41.16
2018-09-08T09:26:51.044Z,40.87
2018-09-08T09:27:51.231Z,40.39
2018-09-08T09:28:51.450Z,41.38
2018-09-08T09:29:51.655Z,43.02
2018-09-08T09:30:51.944Z,41.86
2018-09-08T09:31:52.006Z,40.39
2018-09-08T09:32:52.193Z,41.20
2018-09-08T09:33:52.479Z,40.93
2018-09-08T09:34:52.525Z,39.69
2018-09-08T09:35:52.708Z,39.76
2018-09-08T09:36:53.048Z,38.81
2018-09-08T09:37:52.996Z,38.65
2018-09-08T09:38:53.186Z,37.87
2018-09-08T09:39:53.447Z,37.99
2018-09-08T09:40:53.555Z,37.70
2018-09-08T09:41:53.753Z,38.69
2018-09-08T09:42:53.946Z,36.65
2018-09-08T09:43:54.144Z,35.28
2018-09-08T09:44:54.367Z,36.33
2018-09-08T09:45:54.553Z,37.31
2018-09-08T09:46:54.771Z,37.29
2018-09-08T09:47:54.966Z,37.31
2018-09-08T09:48:55.140Z,37.00
2018-09-08T09:49:55.325Z,36.69
2018-09-08T09:50:55.551Z,36.69
2018-09-08T09:51:55.787Z,38.05
2018-09-08T09:52:55.966Z,36.69
2018-09-08T09:53:56.153Z,36.08
2018-09-08T09:54:56.375Z,36.02
2018-09-08T09:55:56.543Z,35.94
2018-09-08T09:56:56.812Z,34.48
2018-09-08T09:57:56.876Z,34.76
2018-09-08T09:58:57.095Z,35.65
2018-09-08T09:59:57.351Z,35.67
2018-09-08T10:00:57.433Z,35.00
2018-09-08T10:01:57.585Z,34.24
2018-09-08T10:02:57.770Z,32.99
2018-09-08T10:03:57.959Z,33.38
2018-09-08T10:04:58.144Z,34.67
2018-09-08T10:05:58.335Z,34.57
2018-09-08T10:06:58.510Z,32.91
2018-09-08T10:07:58.694Z,32.87
2018-09-08T10:08:58.889Z,32.87
2018-09-08T10:09:59.076Z,33.95
2018-09-08T10:10:59.263Z,32.78
2018-09-08T10:11:59.503Z,33.09
2018-09-08T10:12:59.650Z,33.11
2018-09-08T10:13:59.837Z,33.02
2018-09-08T10:15:00.027Z,32.04
2018-09-08T10:16:00.226Z,31.25
2018-09-08T10:17:00.418Z,31.52
2018-09-08T10:18:00.599Z,33.07
2018-09-08T10:19:00.786Z,32.08
2018-09-08T10:20:00.978Z,31.79
2018-09-08T10:21:01.177Z,33.15
2018-09-08T10:22:01.360Z,34.52
2018-09-08T10:23:01.627Z,34.50
2018-09-08T10:24:05.154Z,33.80
2018-09-08T10:25:01.922Z,34.08
2018-09-08T10:26:02.111Z,33.49
2018-09-08T10:27:02.297Z,34.08
2018-09-08T10:28:02.481Z,34.58
2018-09-08T10:29:02.674Z,35.10
2018-09-08T10:30:03.347Z,33.73
2018-09-08T10:31:03.064Z,33.07
2018-09-08T10:32:03.470Z,32.31
2018-09-08T10:33:03.430Z,30.94
2018-09-08T10:34:03.621Z,31.02
2018-09-08T10:35:03.805Z,31.67
2018-09-08T10:36:03.994Z,32.63
2018-09-08T10:37:04.179Z,32.63
2018-09-08T10:38:04.366Z,33.14
2018-09-08T10:39:04.549Z,34.03
2018-09-08T10:40:04.736Z,32.87
2018-09-08T10:41:04.919Z,31.04
2018-09-08T10:42:05.098Z,31.31
2018-09-08T10:43:05.279Z,31.19
2018-09-08T10:44:05.464Z,31.77
2018-09-08T10:45:05.673Z,32.39
2018-09-08T10:46:05.867Z,33.28
2018-09-08T10:47:06.052Z,30.15
2018-09-08T10:48:06.243Z,29.20
2018-09-08T10:49:06.585Z,29.21
2018-09-08T10:50:06.652Z,29.80
2018-09-08T10:51:06.837Z,29.79
2018-09-08T10:52:07.015Z,30.65
2018-09-08T10:53:07.200Z,30.71
2018-09-08T10:54:07.393Z,30.99
2018-09-08T10:55:07.588Z,31.67
2018-09-08T10:56:07.775Z,31.09
2018-09-08T10:57:07.960Z,31.66
2018-09-08T10:58:08.150Z,32.03
2018-09-08T10:59:08.329Z,32.34
2018-09-08T11:00:08.518Z,33.11
2018-09-08T11:01:08.708Z,33.29
2018-09-08T11:02:09.100Z,33.29
2018-09-08T11:03:09.074Z,32.06
2018-09-08T11:04:09.265Z,31.98
2018-09-08T11:05:09.472Z,30.52
2018-09-08T11:06:09.647Z,31.45
2018-09-08T11:07:09.836Z,29.98
2018-09-08T11:08:10.025Z,28.25
2018-09-08T11:09:10.216Z,26.98
2018-09-08T11:10:10.396Z,27.76
2018-09-08T11:11:10.578Z,28.63
2018-09-08T11:12:10.758Z,28.63
2018-09-08T11:13:10.940Z,28.34
2018-09-08T11:14:11.132Z,28.65
2018-09-08T11:15:11.320Z,29.34
2018-09-08T11:16:13.504Z,29.21
2018-09-08T11:17:11.661Z,29.80
2018-09-08T11:18:11.864Z,29.67
2018-09-08T11:19:12.071Z,30.26
2018-09-08T11:20:12.262Z,30.03
2018-09-08T11:21:12.447Z,30.51
2018-09-08T11:22:12.638Z,31.09
2018-09-08T11:23:12.826Z,32.24
2018-09-08T11:24:13.013Z,31.74
2018-09-08T11:25:13.209Z,32.99
2018-09-08T11:26:13.398Z,32.11
2018-09-08T11:27:13.580Z,31.45
2018-09-08T11:28:13.770Z,32.50
2018-09-08T11:29:13.954Z,32.00
2018-09-08T11:30:14.161Z,32.10
2018-09-08T11:31:14.341Z,32.97
2018-09-08T11:32:14.583Z,33.28
2018-09-08T11:33:14.673Z,32.97
2018-09-08T11:34:14.842Z,34.03
2018-09-08T11:35:15.032Z,34.77
2018-09-08T11:36:15.243Z,35.57
2018-09-08T11:37:15.426Z,35.37
2018-09-08T11:38:15.687Z,34.69
2018-09-08T11:39:15.789Z,35.35
2018-09-08T11:40:15.971Z,35.45
2018-09-08T11:41:16.158Z,35.33
2018-09-08T11:42:16.337Z,35.78
2018-09-08T11:43:16.528Z,36.36
2018-09-08T11:44:16.715Z,37.15
2018-09-08T11:45:16.907Z,37.05
2018-09-08T11:46:17.092Z,35.90
2018-09-08T11:47:17.293Z,35.53
2018-09-08T11:48:17.496Z,35.43
2018-09-08T11:49:17.695Z,35.66
2018-09-08T11:50:17.890Z,35.19
2018-09-08T11:51:18.078Z,33.20
2018-09-08T11:52:18.264Z,30.90
2018-09-08T11:53:18.461Z,30.93
2018-09-08T11:54:18.716Z,29.86
2018-09-08T11:55:18.776Z,27.16
2018-09-08T11:56:18.986Z,27.54
2018-09-08T11:57:19.166Z,27.44
2018-09-08T11:58:19.344Z,29.00
2018-09-08T11:59:19.530Z,27.64
2018-09-08T12:00:19.720Z,28.30
2018-09-08T12:01:19.904Z,27.64
2018-09-08T12:02:20.166Z,28.32
2018-09-08T12:03:20.312Z,28.39
2018-09-08T12:04:20.491Z,27.33
2018-09-08T12:05:20.676Z,28.29
2018-09-08T12:06:21.201Z,28.29
2018-09-08T12:07:21.162Z,28.29
2018-09-08T12:08:21.248Z,28.39
2018-09-08T12:09:21.441Z,28.67
2018-09-08T12:10:21.637Z,28.96
2018-09-08T12:11:21.826Z,27.48
2018-09-08T12:12:22.011Z,28.64
2018-09-08T12:13:22.199Z,29.99
2018-09-08T12:14:22.403Z,30.74
2018-09-08T12:15:22.884Z,30.72
2018-09-08T12:16:22.716Z,32.05
2018-09-08T12:17:22.902Z,32.82
2018-09-08T12:18:23.089Z,32.91
2018-09-08T12:19:23.275Z,34.06
2018-09-08T12:20:23.464Z,34.44
2018-09-08T12:21:23.650Z,34.72
2018-09-08T12:22:23.831Z,34.51
2018-09-08T12:23:24.027Z,34.39
2018-09-08T12:24:24.209Z,35.05
2018-09-08T12:25:24.402Z,35.93
2018-09-08T12:26:24.604Z,36.99
2018-09-08T12:27:24.768Z,36.32
2018-09-08T12:28:25.020Z,37.67
2018-09-08T12:29:25.162Z,37.07
2018-09-08T12:30:25.382Z,37.36
2018-09-08T12:31:25.560Z,38.33
2018-09-08T12:32:25.774Z,39.59
2018-09-08T12:33:25.923Z,39.39
2018-09-08T12:34:26.090Z,38.31
2018-09-08T12:35:26.261Z,37.54
2018-09-08T12:36:26.444Z,37.92
2018-09-08T12:37:26.618Z,37.34
2018-09-08T12:38:26.824Z,36.96
2018-09-08T12:39:27.002Z,38.23
2018-09-08T12:40:27.187Z,38.62
2018-09-08T12:41:27.374Z,37.82
2018-09-08T12:42:27.553Z,39.57
2018-09-08T12:43:27.732Z,38.89
2018-09-08T12:44:27.949Z,39.28
2018-09-08T12:45:28.053Z,38.50
2018-09-08T12:46:28.245Z,37.92
2018-09-08T12:47:28.429Z,37.92
2018-09-08T12:48:28.602Z,38.48
2018-09-08T12:49:28.795Z,39.04
2018-09-08T12:50:28.976Z,38.76
2018-09-08T12:51:29.161Z,39.53
2018-09-08T12:52:29.374Z,39.62
2018-09-08T12:53:29.620Z,39.24
2018-09-08T12:54:29.735Z,40.69
2018-09-08T12:55:29.943Z,41.85
2018-09-08T12:56:30.127Z,40.78
2018-09-08T12:57:30.310Z,40.20
2018-09-08T12:58:30.491Z,41.66
2018-09-08T12:59:30.789Z,40.98
2018-09-08T13:00:30.869Z,39.62
2018-09-08T13:01:31.054Z,39.62
2018-09-08T13:02:31.237Z,39.51
2018-09-08T13:03:31.452Z,39.99
2018-09-08T13:04:31.637Z,40.98
2018-09-08T13:05:31.824Z,41.17
2018-09-08T13:06:32.016Z,41.46
2018-09-08T13:07:32.241Z,41.56
2018-09-08T13:08:35.681Z,39.32
2018-09-08T13:09:35.584Z,39.51
2018-09-08T13:10:35.728Z,40.19
2018-09-08T13:11:32.974Z,40.09
2018-09-08T13:12:33.156Z,39.87
2018-09-08T13:13:33.364Z,40.09
2018-09-08T13:14:33.536Z,41.03
2018-09-08T13:15:33.709Z,40.09
2018-09-08T13:16:33.891Z,40.86
2018-09-08T13:17:34.072Z,40.77
2018-09-08T13:18:34.263Z,41.05
2018-09-08T13:19:34.441Z,40.84
2018-09-08T13:20:34.664Z,39.90
2018-09-08T13:21:34.731Z,40.28
2018-09-08T13:22:34.905Z,40.86
2018-09-08T13:23:35.090Z,40.07
2018-09-08T13:24:35.278Z,40.19
2018-09-08T13:25:35.459Z,41.44
2018-09-08T13:26:35.644Z,41.25
2018-09-08T13:27:35.818Z,41.54
2018-09-08T13:28:36.044Z,40.86
2018-09-08T13:29:36.127Z,40.86
2018-09-08T13:30:36.332Z,41.05
2018-09-08T13:31:36.564Z,41.25
2018-09-08T13:32:36.656Z,42.21
2018-09-08T13:33:36.843Z,40.86
2018-09-08T13:34:37.027Z,41.44
2018-09-08T13:35:37.217Z,40.57
2018-09-08T13:36:37.410Z,40.09
2018-09-08T13:37:37.604Z,38.25
2018-09-08T13:38:37.786Z,38.54
2018-09-08T13:39:38.065Z,38.53
2018-09-08T13:40:38.519Z,38.25
2018-09-08T13:41:40.577Z,38.45
2018-09-08T13:42:41.324Z,38.71
2018-09-08T13:43:40.228Z,39.41
2018-09-08T13:44:41.988Z,39.22
2018-09-08T13:45:40.761Z,39.87
2018-09-08T13:46:40.569Z,38.35
2018-09-08T13:47:42.037Z,36.98
2018-09-08T13:48:41.134Z,37.27
2018-09-08T13:49:41.263Z,36.71
2018-09-08T13:50:40.856Z,36.98
2018-09-08T13:51:42.247Z,37.37
2018-09-08T13:52:41.776Z,37.27
2018-09-08T13:53:40.952Z,36.40
2018-09-08T13:54:41.498Z,36.11
2018-09-08T13:55:40.644Z,35.72
2018-09-08T13:56:40.670Z,36.79
2018-09-08T13:57:41.778Z,37.56
2018-09-08T13:58:42.483Z,37.37
2018-09-08T13:59:41.869Z,37.95
2018-09-08T14:00:42.773Z,37.37
2018-09-08T14:01:41.828Z,37.46
2018-09-08T14:02:43.118Z,37.75
2018-09-08T14:03:42.324Z,38.33
2018-09-08T14:04:43.187Z,38.71
2018-09-08T14:05:44.387Z,38.43
2018-09-08T14:06:45.159Z,38.71
2018-09-08T14:07:43.034Z,39.29
2018-09-08T14:08:43.939Z,39.39
2018-09-08T14:09:44.955Z,38.43
2018-09-08T14:10:44.135Z,38.53
2018-09-08T14:11:44.332Z,38.43
2018-09-08T14:12:43.052Z,39.39
2018-09-08T14:13:43.288Z,38.43
2018-09-08T14:14:43.414Z,38.23
2018-09-08T14:15:43.462Z,38.33
2018-09-08T14:16:43.789Z,39.20
2018-09-08T14:17:43.808Z,39.20
2018-09-08T14:18:43.989Z,40.26
2018-09-08T14:19:44.187Z,39.69
2018-09-08T14:20:44.352Z,39.20
2018-09-08T14:21:44.534Z,39.39
2018-09-08T14:22:44.710Z,39.49
2018-09-08T14:23:44.887Z,38.62
2018-09-08T14:24:45.066Z,38.53
2018-09-08T14:25:45.241Z,38.43
2018-09-08T14:26:45.418Z,38.81
2018-09-08T14:27:45.595Z,37.85
2018-09-08T14:28:50.336Z,38.04
2018-09-08T14:29:46.443Z,38.43
2018-09-08T14:30:48.238Z,38.62
2018-09-08T14:31:48.299Z,39.49
2018-09-08T14:32:48.435Z,39.39
2018-09-08T14:33:49.438Z,38.33
2018-09-08T14:34:48.591Z,38.43
2018-09-08T14:35:50.209Z,39.39
2018-09-08T14:36:51.210Z,39.20
2018-09-08T14:37:51.565Z,39.39
2018-09-08T14:38:50.379Z,39.39
2018-09-08T14:39:50.408Z,39.01
2018-09-08T14:40:51.524Z,39.69
2018-09-08T14:41:48.119Z,40.55
2018-09-08T14:42:48.351Z,40.17
2018-09-08T14:43:51.479Z,40.07
2018-09-08T14:44:48.627Z,38.41
2018-09-08T14:45:52.054Z,37.46
2018-09-08T14:46:51.233Z,37.85
2018-09-08T14:47:49.220Z,37.56
2018-09-08T14:48:49.314Z,37.37
2018-09-08T14:49:49.501Z,37.56
2018-09-08T14:50:52.050Z,37.08
2018-09-08T14:51:53.167Z,36.98
2018-09-08T14:52:50.020Z,37.17
2018-09-08T14:53:50.081Z,37.27
2018-09-08T14:54:50.256Z,37.37
2018-09-08T14:55:52.678Z,38.62